sensor_id;sensor_type;location;lat;lon;timestamp;P1;durP1;ratioP1;P2;durP2;ratioP2
35685;SDS011;21808;42.142;24.720;2024-03-22T00:01:45;23.15;;;8.68;;
35685;SDS011;21808;42.142;24.720;2024-03-22T00:04:12;19.23;;;8.18;;
35685;SDS011;21808;42.142;24.720;2024-03-22T00:06:38;19.42;;;8.23;;
35685;SDS011;21808;42.142;24.720;2024-03-22T00:09:04;21.30;;;8.73;;
35685;SDS011;21808;42.142;24.720;2024-03-22T00:11:30;20.58;;;7.95;;
35685;SDS011;21808;42.142;24.720;2024-03-22T00:13:56;16.95;;;7.13;;
35685;SDS011;21808;42.142;24.720;2024-03-22T00:16:22;18.52;;;8.30;;
35685;SDS011;21808;42.142;24.720;2024-03-22T00:18:52;17.98;;;7.70;;
35685;SDS011;21808;42.142;24.720;2024-03-22T00:21:18;21.25;;;8.18;;
35685;SDS011;21808;42.142;24.720;2024-03-22T00:23:44;19.23;;;7.72;;
35685;SDS011;21808;42.142;24.720;2024-03-22T00:26:11;22.65;;;8.40;;
35685;SDS011;21808;42.142;24.720;2024-03-22T00:28:37;17.80;;;7.65;;
35685;SDS011;21808;42.142;24.720;2024-03-22T00:31:03;16.60;;;7.03;;
35685;SDS011;21808;42.142;24.720;2024-03-22T00:33:29;19.48;;;9.10;;
35685;SDS011;21808;42.142;24.720;2024-03-22T00:35:56;20.33;;;9.27;;
35685;SDS011;21808;42.142;24.720;2024-03-22T00:38:22;18.30;;;7.40;;
35685;SDS011;21808;42.142;24.720;2024-03-22T00:40:48;20.00;;;8.98;;
35685;SDS011;21808;42.142;24.720;2024-03-22T00:43:14;23.48;;;9.75;;
35685;SDS011;21808;42.142;24.720;2024-03-22T00:45:40;23.83;;;9.82;;
35685;SDS011;21808;42.142;24.720;2024-03-22T00:48:07;23.92;;;10.85;;
35685;SDS011;21808;42.142;24.720;2024-03-22T00:50:33;23.88;;;10.32;;
35685;SDS011;21808;42.142;24.720;2024-03-22T00:53:00;25.55;;;10.07;;
35685;SDS011;21808;42.142;24.720;2024-03-22T00:55:28;25.73;;;10.65;;
35685;SDS011;21808;42.142;24.720;2024-03-22T00:57:54;21.58;;;9.95;;
35685;SDS011;21808;42.142;24.720;2024-03-22T01:00:20;29.02;;;10.68;;
35685;SDS011;21808;42.142;24.720;2024-03-22T01:02:46;24.63;;;10.10;;
35685;SDS011;21808;42.142;24.720;2024-03-22T01:05:12;23.88;;;10.75;;
35685;SDS011;21808;42.142;24.720;2024-03-22T01:07:38;28.20;;;11.40;;
35685;SDS011;21808;42.142;24.720;2024-03-22T01:10:06;20.98;;;9.77;;
35685;SDS011;21808;42.142;24.720;2024-03-22T01:12:32;21.63;;;10.05;;
35685;SDS011;21808;42.142;24.720;2024-03-22T01:14:58;21.98;;;10.07;;
35685;SDS011;21808;42.142;24.720;2024-03-22T01:17:24;24.85;;;10.85;;
35685;SDS011;21808;42.142;24.720;2024-03-22T01:19:50;27.90;;;11.40;;
35685;SDS011;21808;42.142;24.720;2024-03-22T01:22:17;25.05;;;11.52;;
35685;SDS011;21808;42.142;24.720;2024-03-22T01:24:43;26.17;;;10.77;;
35685;SDS011;21808;42.142;24.720;2024-03-22T01:27:11;25.83;;;12.05;;
35685;SDS011;21808;42.142;24.720;2024-03-22T01:29:37;26.48;;;11.48;;
35685;SDS011;21808;42.142;24.720;2024-03-22T01:32:06;25.05;;;10.25;;
35685;SDS011;21808;42.142;24.720;2024-03-22T01:34:32;23.55;;;10.77;;
35685;SDS011;21808;42.142;24.720;2024-03-22T01:37:00;21.60;;;10.10;;
35685;SDS011;21808;42.142;24.720;2024-03-22T01:39:26;24.77;;;11.25;;
35685;SDS011;21808;42.142;24.720;2024-03-22T01:41:52;26.63;;;11.45;;
35685;SDS011;21808;42.142;24.720;2024-03-22T01:44:19;25.65;;;11.43;;
35685;SDS011;21808;42.142;24.720;2024-03-22T01:46:52;26.58;;;12.10;;
35685;SDS011;21808;42.142;24.720;2024-03-22T01:49:18;28.27;;;11.60;;
35685;SDS011;21808;42.142;24.720;2024-03-22T01:51:44;23.27;;;10.50;;
35685;SDS011;21808;42.142;24.720;2024-03-22T01:54:10;26.88;;;11.40;;
35685;SDS011;21808;42.142;24.720;2024-03-22T01:56:36;29.13;;;11.93;;
35685;SDS011;21808;42.142;24.720;2024-03-22T01:59:04;26.98;;;11.88;;
35685;SDS011;21808;42.142;24.720;2024-03-22T02:01:32;27.13;;;12.88;;
35685;SDS011;21808;42.142;24.720;2024-03-22T02:03:58;25.05;;;11.52;;
35685;SDS011;21808;42.142;24.720;2024-03-22T02:06:24;32.08;;;13.93;;
35685;SDS011;21808;42.142;24.720;2024-03-22T02:08:50;27.92;;;12.23;;
35685;SDS011;21808;42.142;24.720;2024-03-22T02:11:16;26.80;;;13.45;;
35685;SDS011;21808;42.142;24.720;2024-03-22T02:13:42;29.58;;;14.10;;
35685;SDS011;21808;42.142;24.720;2024-03-22T02:16:08;37.45;;;16.17;;
35685;SDS011;21808;42.142;24.720;2024-03-22T02:18:36;32.40;;;15.10;;
35685;SDS011;21808;42.142;24.720;2024-03-22T02:21:02;34.17;;;16.58;;
35685;SDS011;21808;42.142;24.720;2024-03-22T02:23:31;35.35;;;15.80;;
35685;SDS011;21808;42.142;24.720;2024-03-22T02:25:58;40.50;;;17.42;;
35685;SDS011;21808;42.142;24.720;2024-03-22T02:28:24;34.38;;;14.50;;
35685;SDS011;21808;42.142;24.720;2024-03-22T02:30:49;36.38;;;16.48;;
35685;SDS011;21808;42.142;24.720;2024-03-22T02:33:15;34.67;;;18.00;;
35685;SDS011;21808;42.142;24.720;2024-03-22T02:35:41;37.35;;;17.70;;
35685;SDS011;21808;42.142;24.720;2024-03-22T02:38:08;39.75;;;18.33;;
35685;SDS011;21808;42.142;24.720;2024-03-22T02:40:35;36.75;;;16.58;;
35685;SDS011;21808;42.142;24.720;2024-03-22T02:43:01;32.92;;;16.52;;
35685;SDS011;21808;42.142;24.720;2024-03-22T02:45:27;34.35;;;15.20;;
35685;SDS011;21808;42.142;24.720;2024-03-22T02:47:53;32.20;;;13.57;;
35685;SDS011;21808;42.142;24.720;2024-03-22T02:50:19;26.95;;;12.50;;
35685;SDS011;21808;42.142;24.720;2024-03-22T02:52:45;33.25;;;13.05;;
35685;SDS011;21808;42.142;24.720;2024-03-22T02:55:11;30.38;;;13.20;;
35685;SDS011;21808;42.142;24.720;2024-03-22T02:57:38;30.45;;;13.15;;
35685;SDS011;21808;42.142;24.720;2024-03-22T03:00:04;30.95;;;13.48;;
35685;SDS011;21808;42.142;24.720;2024-03-22T03:02:31;29.50;;;13.43;;
35685;SDS011;21808;42.142;24.720;2024-03-22T03:04:57;29.50;;;13.23;;
35685;SDS011;21808;42.142;24.720;2024-03-22T03:07:23;31.42;;;12.70;;
35685;SDS011;21808;42.142;24.720;2024-03-22T03:09:49;28.42;;;12.63;;
35685;SDS011;21808;42.142;24.720;2024-03-22T03:12:15;28.17;;;13.18;;
35685;SDS011;21808;42.142;24.720;2024-03-22T03:14:42;31.17;;;12.73;;
35685;SDS011;21808;42.142;24.720;2024-03-22T03:17:08;30.95;;;13.52;;
35685;SDS011;21808;42.142;24.720;2024-03-22T03:19:34;43.45;;;13.95;;
35685;SDS011;21808;42.142;24.720;2024-03-22T03:22:00;40.55;;;14.77;;
35685;SDS011;21808;42.142;24.720;2024-03-22T03:24:26;35.13;;;14.65;;
35685;SDS011;21808;42.142;24.720;2024-03-22T03:26:52;36.40;;;15.00;;
35685;SDS011;21808;42.142;24.720;2024-03-22T03:29:18;31.67;;;14.07;;
35685;SDS011;21808;42.142;24.720;2024-03-22T03:31:45;31.50;;;15.15;;
35685;SDS011;21808;42.142;24.720;2024-03-22T03:34:11;37.78;;;17.90;;
35685;SDS011;21808;42.142;24.720;2024-03-22T03:36:37;39.20;;;17.17;;
35685;SDS011;21808;42.142;24.720;2024-03-22T03:39:05;45.90;;;19.27;;
35685;SDS011;21808;42.142;24.720;2024-03-22T03:41:31;44.53;;;18.95;;
35685;SDS011;21808;42.142;24.720;2024-03-22T03:43:57;41.50;;;18.00;;
35685;SDS011;21808;42.142;24.720;2024-03-22T03:46:23;39.13;;;17.45;;
35685;SDS011;21808;42.142;24.720;2024-03-22T03:48:50;40.65;;;18.08;;
35685;SDS011;21808;42.142;24.720;2024-03-22T03:51:16;42.88;;;19.35;;
35685;SDS011;21808;42.142;24.720;2024-03-22T03:53:42;38.53;;;17.45;;
35685;SDS011;21808;42.142;24.720;2024-03-22T03:56:08;40.95;;;17.65;;
35685;SDS011;21808;42.142;24.720;2024-03-22T03:58:34;32.17;;;14.15;;
35685;SDS011;21808;42.142;24.720;2024-03-22T04:01:04;30.95;;;15.18;;
35685;SDS011;21808;42.142;24.720;2024-03-22T04:03:30;35.08;;;15.52;;
35685;SDS011;21808;42.142;24.720;2024-03-22T04:05:58;37.50;;;15.82;;
35685;SDS011;21808;42.142;24.720;2024-03-22T04:08:25;35.50;;;16.30;;
35685;SDS011;21808;42.142;24.720;2024-03-22T04:10:51;31.15;;;15.07;;
35685;SDS011;21808;42.142;24.720;2024-03-22T04:13:18;32.53;;;14.45;;
35685;SDS011;21808;42.142;24.720;2024-03-22T04:15:43;30.95;;;13.95;;
35685;SDS011;21808;42.142;24.720;2024-03-22T04:18:09;32.67;;;13.68;;
35685;SDS011;21808;42.142;24.720;2024-03-22T04:20:35;31.05;;;14.43;;
35685;SDS011;21808;42.142;24.720;2024-03-22T04:23:03;28.23;;;11.98;;
35685;SDS011;21808;42.142;24.720;2024-03-22T04:25:29;34.60;;;13.68;;
35685;SDS011;21808;42.142;24.720;2024-03-22T04:27:55;32.05;;;13.68;;
35685;SDS011;21808;42.142;24.720;2024-03-22T04:30:21;36.50;;;14.45;;
35685;SDS011;21808;42.142;24.720;2024-03-22T04:32:46;36.10;;;15.02;;
35685;SDS011;21808;42.142;24.720;2024-03-22T04:35:12;36.28;;;15.45;;
35685;SDS011;21808;42.142;24.720;2024-03-22T04:37:39;32.22;;;13.82;;
35685;SDS011;21808;42.142;24.720;2024-03-22T04:40:07;34.47;;;14.23;;
35685;SDS011;21808;42.142;24.720;2024-03-22T04:42:35;34.05;;;14.48;;
35685;SDS011;21808;42.142;24.720;2024-03-22T04:45:01;31.13;;;14.10;;
35685;SDS011;21808;42.142;24.720;2024-03-22T04:47:27;26.48;;;11.80;;
35685;SDS011;21808;42.142;24.720;2024-03-22T04:49:53;26.25;;;12.50;;
35685;SDS011;21808;42.142;24.720;2024-03-22T04:52:19;31.45;;;13.88;;
35685;SDS011;21808;42.142;24.720;2024-03-22T04:54:45;27.25;;;12.85;;
35685;SDS011;21808;42.142;24.720;2024-03-22T04:57:14;32.13;;;13.38;;
35685;SDS011;21808;42.142;24.720;2024-03-22T04:59:40;29.45;;;12.90;;
35685;SDS011;21808;42.142;24.720;2024-03-22T05:02:06;25.42;;;13.85;;
35685;SDS011;21808;42.142;24.720;2024-03-22T05:04:32;24.30;;;11.88;;
35685;SDS011;21808;42.142;24.720;2024-03-22T05:06:59;27.63;;;12.82;;
35685;SDS011;21808;42.142;24.720;2024-03-22T05:09:24;25.25;;;11.35;;
35685;SDS011;21808;42.142;24.720;2024-03-22T05:11:50;32.45;;;12.95;;
35685;SDS011;21808;42.142;24.720;2024-03-22T05:14:18;29.48;;;13.07;;
35685;SDS011;21808;42.142;24.720;2024-03-22T05:16:45;35.67;;;13.15;;
35685;SDS011;21808;42.142;24.720;2024-03-22T05:19:10;25.75;;;12.52;;
35685;SDS011;21808;42.142;24.720;2024-03-22T05:21:36;26.70;;;12.88;;
35685;SDS011;21808;42.142;24.720;2024-03-22T05:24:02;25.08;;;11.52;;
35685;SDS011;21808;42.142;24.720;2024-03-22T05:26:28;28.13;;;12.77;;
35685;SDS011;21808;42.142;24.720;2024-03-22T05:28:57;24.95;;;12.00;;
35685;SDS011;21808;42.142;24.720;2024-03-22T05:31:24;28.75;;;12.77;;
35685;SDS011;21808;42.142;24.720;2024-03-22T05:33:50;30.02;;;12.63;;
35685;SDS011;21808;42.142;24.720;2024-03-22T05:36:16;26.25;;;13.25;;
35685;SDS011;21808;42.142;24.720;2024-03-22T05:38:42;24.42;;;11.15;;
35685;SDS011;21808;42.142;24.720;2024-03-22T05:41:08;26.67;;;12.57;;
35685;SDS011;21808;42.142;24.720;2024-03-22T05:43:34;26.13;;;11.23;;
35685;SDS011;21808;42.142;24.720;2024-03-22T05:46:00;22.10;;;10.40;;
35685;SDS011;21808;42.142;24.720;2024-03-22T05:48:27;21.67;;;10.95;;
35685;SDS011;21808;42.142;24.720;2024-03-22T05:50:53;24.75;;;11.65;;
35685;SDS011;21808;42.142;24.720;2024-03-22T05:53:19;22.45;;;10.60;;
35685;SDS011;21808;42.142;24.720;2024-03-22T05:55:45;23.77;;;10.95;;
35685;SDS011;21808;42.142;24.720;2024-03-22T05:58:11;23.42;;;10.68;;
35685;SDS011;21808;42.142;24.720;2024-03-22T06:00:38;26.00;;;11.50;;
35685;SDS011;21808;42.142;24.720;2024-03-22T06:03:04;26.20;;;10.27;;
35685;SDS011;21808;42.142;24.720;2024-03-22T06:05:34;23.67;;;11.52;;
35685;SDS011;21808;42.142;24.720;2024-03-22T06:08:00;22.45;;;10.80;;
35685;SDS011;21808;42.142;24.720;2024-03-22T06:10:27;22.50;;;11.57;;
35685;SDS011;21808;42.142;24.720;2024-03-22T06:12:52;22.42;;;10.20;;
35685;SDS011;21808;42.142;24.720;2024-03-22T06:15:18;23.90;;;9.90;;
35685;SDS011;21808;42.142;24.720;2024-03-22T06:17:44;21.35;;;9.98;;
35685;SDS011;21808;42.142;24.720;2024-03-22T06:20:11;21.65;;;9.15;;
35685;SDS011;21808;42.142;24.720;2024-03-22T06:22:39;25.95;;;10.25;;
35685;SDS011;21808;42.142;24.720;2024-03-22T06:25:05;22.00;;;10.25;;
35685;SDS011;21808;42.142;24.720;2024-03-22T06:27:37;23.17;;;10.70;;
35685;SDS011;21808;42.142;24.720;2024-03-22T06:30:04;21.40;;;9.63;;
35685;SDS011;21808;42.142;24.720;2024-03-22T06:32:30;26.30;;;10.60;;
35685;SDS011;21808;42.142;24.720;2024-03-22T06:34:56;22.70;;;10.55;;
35685;SDS011;21808;42.142;24.720;2024-03-22T06:37:22;27.20;;;10.57;;
35685;SDS011;21808;42.142;24.720;2024-03-22T06:39:49;22.75;;;10.95;;
35685;SDS011;21808;42.142;24.720;2024-03-22T06:42:15;23.85;;;10.82;;
35685;SDS011;21808;42.142;24.720;2024-03-22T06:44:41;24.02;;;11.05;;
35685;SDS011;21808;42.142;24.720;2024-03-22T06:47:10;25.48;;;10.48;;
35685;SDS011;21808;42.142;24.720;2024-03-22T06:49:36;17.92;;;8.20;;
35685;SDS011;21808;42.142;24.720;2024-03-22T06:52:02;21.75;;;8.60;;
35685;SDS011;21808;42.142;24.720;2024-03-22T06:54:29;19.95;;;9.40;;
35685;SDS011;21808;42.142;24.720;2024-03-22T06:56:57;19.38;;;8.20;;
35685;SDS011;21808;42.142;24.720;2024-03-22T06:59:22;20.50;;;8.50;;
35685;SDS011;21808;42.142;24.720;2024-03-22T07:01:48;20.92;;;9.15;;
35685;SDS011;21808;42.142;24.720;2024-03-22T07:04:15;22.85;;;9.18;;
35685;SDS011;21808;42.142;24.720;2024-03-22T07:06:41;22.48;;;9.10;;
35685;SDS011;21808;42.142;24.720;2024-03-22T07:09:07;17.08;;;7.85;;
35685;SDS011;21808;42.142;24.720;2024-03-22T07:11:34;20.88;;;7.57;;
35685;SDS011;21808;42.142;24.720;2024-03-22T07:14:01;15.27;;;6.35;;
35685;SDS011;21808;42.142;24.720;2024-03-22T07:16:27;20.90;;;7.72;;
35685;SDS011;21808;42.142;24.720;2024-03-22T07:18:53;17.17;;;7.28;;
35685;SDS011;21808;42.142;24.720;2024-03-22T07:21:19;20.63;;;7.80;;
35685;SDS011;21808;42.142;24.720;2024-03-22T07:23:45;17.88;;;6.93;;
35685;SDS011;21808;42.142;24.720;2024-03-22T07:26:11;15.35;;;6.55;;
35685;SDS011;21808;42.142;24.720;2024-03-22T07:28:37;17.05;;;7.53;;
35685;SDS011;21808;42.142;24.720;2024-03-22T07:31:05;18.55;;;7.85;;
35685;SDS011;21808;42.142;24.720;2024-03-22T07:33:31;19.40;;;6.65;;
35685;SDS011;21808;42.142;24.720;2024-03-22T07:36:01;18.98;;;7.32;;
35685;SDS011;21808;42.142;24.720;2024-03-22T07:38:27;17.65;;;6.68;;
35685;SDS011;21808;42.142;24.720;2024-03-22T07:40:56;21.45;;;6.82;;
35685;SDS011;21808;42.142;24.720;2024-03-22T07:43:22;15.77;;;6.72;;
35685;SDS011;21808;42.142;24.720;2024-03-22T07:45:48;18.30;;;7.43;;
35685;SDS011;21808;42.142;24.720;2024-03-22T07:48:16;16.73;;;7.57;;
35685;SDS011;21808;42.142;24.720;2024-03-22T07:50:43;16.88;;;7.00;;
35685;SDS011;21808;42.142;24.720;2024-03-22T07:53:12;18.65;;;7.97;;
35685;SDS011;21808;42.142;24.720;2024-03-22T07:55:39;16.65;;;7.00;;
35685;SDS011;21808;42.142;24.720;2024-03-22T07:58:05;19.92;;;7.28;;
35685;SDS011;21808;42.142;24.720;2024-03-22T08:00:31;18.83;;;7.18;;
35685;SDS011;21808;42.142;24.720;2024-03-22T08:02:57;17.05;;;7.50;;
35685;SDS011;21808;42.142;24.720;2024-03-22T08:05:48;20.48;;;7.13;;
35685;SDS011;21808;42.142;24.720;2024-03-22T08:08:13;15.88;;;6.75;;
35685;SDS011;21808;42.142;24.720;2024-03-22T08:10:40;20.88;;;6.35;;
35685;SDS011;21808;42.142;24.720;2024-03-22T08:13:07;15.43;;;6.72;;
35685;SDS011;21808;42.142;24.720;2024-03-22T08:15:35;15.00;;;6.38;;
35685;SDS011;21808;42.142;24.720;2024-03-22T08:18:01;16.38;;;6.53;;
35685;SDS011;21808;42.142;24.720;2024-03-22T08:20:28;15.20;;;6.22;;
35685;SDS011;21808;42.142;24.720;2024-03-22T08:22:55;17.83;;;6.90;;
35685;SDS011;21808;42.142;24.720;2024-03-22T08:25:21;19.48;;;7.25;;
35685;SDS011;21808;42.142;24.720;2024-03-22T08:27:49;14.85;;;6.22;;
35685;SDS011;21808;42.142;24.720;2024-03-22T08:30:15;13.77;;;6.35;;
35685;SDS011;21808;42.142;24.720;2024-03-22T08:32:41;15.27;;;6.90;;
35685;SDS011;21808;42.142;24.720;2024-03-22T08:35:07;15.65;;;6.57;;
35685;SDS011;21808;42.142;24.720;2024-03-22T08:37:33;16.13;;;6.90;;
35685;SDS011;21808;42.142;24.720;2024-03-22T08:40:01;15.90;;;6.43;;
35685;SDS011;21808;42.142;24.720;2024-03-22T08:42:28;18.38;;;6.68;;
35685;SDS011;21808;42.142;24.720;2024-03-22T08:44:57;15.32;;;7.28;;
35685;SDS011;21808;42.142;24.720;2024-03-22T08:47:23;18.92;;;6.65;;
35685;SDS011;21808;42.142;24.720;2024-03-22T08:49:49;16.10;;;6.85;;
35685;SDS011;21808;42.142;24.720;2024-03-22T08:52:16;15.98;;;6.07;;
35685;SDS011;21808;42.142;24.720;2024-03-22T08:54:42;17.75;;;6.28;;
35685;SDS011;21808;42.142;24.720;2024-03-22T08:57:12;16.77;;;5.75;;
35685;SDS011;21808;42.142;24.720;2024-03-22T08:59:38;15.73;;;6.93;;
35685;SDS011;21808;42.142;24.720;2024-03-22T09:02:05;15.98;;;6.22;;
35685;SDS011;21808;42.142;24.720;2024-03-22T09:04:31;14.15;;;6.15;;
35685;SDS011;21808;42.142;24.720;2024-03-22T09:06:57;13.57;;;5.07;;
35685;SDS011;21808;42.142;24.720;2024-03-22T09:09:24;13.70;;;5.03;;
35685;SDS011;21808;42.142;24.720;2024-03-22T09:11:50;13.85;;;5.20;;
35685;SDS011;21808;42.142;24.720;2024-03-22T09:14:19;10.85;;;4.68;;
35685;SDS011;21808;42.142;24.720;2024-03-22T09:16:46;10.18;;;4.25;;
35685;SDS011;21808;42.142;24.720;2024-03-22T09:19:13;12.13;;;4.88;;
35685;SDS011;21808;42.142;24.720;2024-03-22T09:21:42;10.15;;;4.25;;
35685;SDS011;21808;42.142;24.720;2024-03-22T09:24:08;12.27;;;3.80;;
35685;SDS011;21808;42.142;24.720;2024-03-22T09:26:40;13.45;;;5.93;;
35685;SDS011;21808;42.142;24.720;2024-03-22T09:29:06;8.13;;;3.08;;
35685;SDS011;21808;42.142;24.720;2024-03-22T09:31:38;7.90;;;2.33;;
35685;SDS011;21808;42.142;24.720;2024-03-22T09:34:04;6.38;;;1.88;;
35685;SDS011;21808;42.142;24.720;2024-03-22T09:36:31;6.85;;;2.28;;
35685;SDS011;21808;42.142;24.720;2024-03-22T09:39:01;6.57;;;1.85;;
35685;SDS011;21808;42.142;24.720;2024-03-22T09:41:31;12.38;;;3.50;;
35685;SDS011;21808;42.142;24.720;2024-03-22T09:43:58;7.75;;;2.72;;
35685;SDS011;21808;42.142;24.720;2024-03-22T09:46:29;9.38;;;2.75;;
35685;SDS011;21808;42.142;24.720;2024-03-22T09:48:57;9.02;;;2.58;;
35685;SDS011;21808;42.142;24.720;2024-03-22T09:51:28;7.65;;;2.40;;
35685;SDS011;21808;42.142;24.720;2024-03-22T09:53:54;8.45;;;2.88;;
35685;SDS011;21808;42.142;24.720;2024-03-22T09:56:21;7.47;;;2.55;;
35685;SDS011;21808;42.142;24.720;2024-03-22T09:58:50;8.73;;;2.97;;
35685;SDS011;21808;42.142;24.720;2024-03-22T10:01:16;9.25;;;2.88;;
35685;SDS011;21808;42.142;24.720;2024-03-22T10:03:43;7.60;;;2.70;;
35685;SDS011;21808;42.142;24.720;2024-03-22T10:06:11;8.15;;;2.67;;
35685;SDS011;21808;42.142;24.720;2024-03-22T10:08:38;8.02;;;2.90;;
35685;SDS011;21808;42.142;24.720;2024-03-22T10:11:04;8.48;;;2.90;;
35685;SDS011;21808;42.142;24.720;2024-03-22T10:13:33;7.28;;;2.53;;
35685;SDS011;21808;42.142;24.720;2024-03-22T10:15:59;10.82;;;3.28;;
35685;SDS011;21808;42.142;24.720;2024-03-22T10:18:26;10.68;;;2.97;;
35685;SDS011;21808;42.142;24.720;2024-03-22T10:20:59;8.15;;;2.80;;
35685;SDS011;21808;42.142;24.720;2024-03-22T10:23:33;8.68;;;2.72;;
35685;SDS011;21808;42.142;24.720;2024-03-22T10:26:00;8.98;;;3.05;;
35685;SDS011;21808;42.142;24.720;2024-03-22T10:28:26;11.27;;;3.47;;
35685;SDS011;21808;42.142;24.720;2024-03-22T10:30:52;9.43;;;2.70;;
35685;SDS011;21808;42.142;24.720;2024-03-22T10:33:22;9.57;;;2.70;;
35685;SDS011;21808;42.142;24.720;2024-03-22T10:35:50;10.00;;;3.10;;
35685;SDS011;21808;42.142;24.720;2024-03-22T10:38:21;7.45;;;2.70;;
35685;SDS011;21808;42.142;24.720;2024-03-22T10:40:52;7.75;;;2.70;;
35685;SDS011;21808;42.142;24.720;2024-03-22T10:43:20;7.97;;;2.42;;
35685;SDS011;21808;42.142;24.720;2024-03-22T10:45:47;9.18;;;2.70;;
35685;SDS011;21808;42.142;24.720;2024-03-22T10:48:26;8.00;;;2.63;;
35685;SDS011;21808;42.142;24.720;2024-03-22T10:50:55;7.50;;;2.17;;
35685;SDS011;21808;42.142;24.720;2024-03-22T10:53:24;5.55;;;1.90;;
35685;SDS011;21808;42.142;24.720;2024-03-22T10:55:54;7.45;;;1.98;;
35685;SDS011;21808;42.142;24.720;2024-03-22T10:58:25;6.57;;;2.13;;
35685;SDS011;21808;42.142;24.720;2024-03-22T11:00:51;6.85;;;2.03;;
35685;SDS011;21808;42.142;24.720;2024-03-22T11:03:19;6.28;;;2.35;;
35685;SDS011;21808;42.142;24.720;2024-03-22T11:05:45;8.20;;;2.60;;
35685;SDS011;21808;42.142;24.720;2024-03-22T11:08:11;8.50;;;2.70;;
35685;SDS011;21808;42.142;24.720;2024-03-22T11:10:38;9.90;;;2.40;;
35685;SDS011;21808;42.142;24.720;2024-03-22T11:13:08;5.70;;;1.75;;
35685;SDS011;21808;42.142;24.720;2024-03-22T11:15:37;7.55;;;2.03;;
35685;SDS011;21808;42.142;24.720;2024-03-22T11:18:05;7.82;;;2.00;;
35685;SDS011;21808;42.142;24.720;2024-03-22T11:20:31;5.90;;;2.00;;
35685;SDS011;21808;42.142;24.720;2024-03-22T11:22:57;7.55;;;2.03;;
35685;SDS011;21808;42.142;24.720;2024-03-22T11:25:25;6.65;;;1.98;;
35685;SDS011;21808;42.142;24.720;2024-03-22T11:27:51;8.70;;;2.33;;
35685;SDS011;21808;42.142;24.720;2024-03-22T11:30:20;8.95;;;2.08;;
35685;SDS011;21808;42.142;24.720;2024-03-22T11:32:49;7.93;;;2.70;;
35685;SDS011;21808;42.142;24.720;2024-03-22T11:35:15;6.00;;;2.15;;
35685;SDS011;21808;42.142;24.720;2024-03-22T11:37:41;8.25;;;2.10;;
35685;SDS011;21808;42.142;24.720;2024-03-22T11:40:08;6.90;;;2.45;;
35685;SDS011;21808;42.142;24.720;2024-03-22T11:42:36;13.43;;;2.60;;
35685;SDS011;21808;42.142;24.720;2024-03-22T11:45:03;7.00;;;2.47;;
35685;SDS011;21808;42.142;24.720;2024-03-22T11:47:35;6.78;;;2.22;;
35685;SDS011;21808;42.142;24.720;2024-03-22T11:50:01;9.27;;;2.30;;
35685;SDS011;21808;42.142;24.720;2024-03-22T11:52:30;10.02;;;2.40;;
35685;SDS011;21808;42.142;24.720;2024-03-22T11:54:57;6.18;;;2.13;;
35685;SDS011;21808;42.142;24.720;2024-03-22T11:57:23;8.35;;;2.50;;
35685;SDS011;21808;42.142;24.720;2024-03-22T11:59:50;7.68;;;2.40;;
35685;SDS011;21808;42.142;24.720;2024-03-22T12:02:16;12.82;;;2.75;;
35685;SDS011;21808;42.142;24.720;2024-03-22T12:04:44;11.40;;;2.60;;
35685;SDS011;21808;42.142;24.720;2024-03-22T12:07:11;7.88;;;2.55;;
35685;SDS011;21808;42.142;24.720;2024-03-22T12:09:39;7.80;;;2.50;;
35685;SDS011;21808;42.142;24.720;2024-03-22T12:12:06;10.18;;;2.70;;
35685;SDS011;21808;42.142;24.720;2024-03-22T12:14:35;6.32;;;2.28;;
35685;SDS011;21808;42.142;24.720;2024-03-22T12:17:01;5.88;;;1.90;;
35685;SDS011;21808;42.142;24.720;2024-03-22T12:19:27;10.23;;;2.80;;
35685;SDS011;21808;42.142;24.720;2024-03-22T12:21:55;8.20;;;2.50;;
35685;SDS011;21808;42.142;24.720;2024-03-22T12:24:21;6.60;;;2.08;;
35685;SDS011;21808;42.142;24.720;2024-03-22T12:26:48;8.25;;;2.45;;
35685;SDS011;21808;42.142;24.720;2024-03-22T12:29:15;6.13;;;2.35;;
35685;SDS011;21808;42.142;24.720;2024-03-22T12:31:41;7.68;;;2.55;;
35685;SDS011;21808;42.142;24.720;2024-03-22T12:34:08;8.48;;;2.30;;
35685;SDS011;21808;42.142;24.720;2024-03-22T12:36:34;6.93;;;2.47;;
35685;SDS011;21808;42.142;24.720;2024-03-22T12:39:02;7.78;;;2.60;;
35685;SDS011;21808;42.142;24.720;2024-03-22T12:41:29;8.80;;;2.50;;
35685;SDS011;21808;42.142;24.720;2024-03-22T12:43:55;8.38;;;3.47;;
35685;SDS011;21808;42.142;24.720;2024-03-22T12:46:26;7.97;;;2.50;;
35685;SDS011;21808;42.142;24.720;2024-03-22T12:48:53;8.75;;;2.42;;
35685;SDS011;21808;42.142;24.720;2024-03-22T12:51:19;8.00;;;3.72;;
35685;SDS011;21808;42.142;24.720;2024-03-22T12:53:47;7.82;;;2.25;;
35685;SDS011;21808;42.142;24.720;2024-03-22T12:56:15;7.80;;;2.78;;
35685;SDS011;21808;42.142;24.720;2024-03-22T12:58:41;6.60;;;2.05;;
35685;SDS011;21808;42.142;24.720;2024-03-22T13:01:07;7.43;;;2.20;;
35685;SDS011;21808;42.142;24.720;2024-03-22T13:03:36;7.35;;;2.40;;
35685;SDS011;21808;42.142;24.720;2024-03-22T13:06:03;7.20;;;2.20;;
35685;SDS011;21808;42.142;24.720;2024-03-22T13:08:39;7.90;;;3.08;;
35685;SDS011;21808;42.142;24.720;2024-03-22T13:11:08;7.95;;;2.75;;
35685;SDS011;21808;42.142;24.720;2024-03-22T13:13:36;8.80;;;2.60;;
35685;SDS011;21808;42.142;24.720;2024-03-22T13:16:05;10.45;;;2.60;;
35685;SDS011;21808;42.142;24.720;2024-03-22T13:18:38;7.63;;;2.50;;
35685;SDS011;21808;42.142;24.720;2024-03-22T13:21:04;6.85;;;2.10;;
35685;SDS011;21808;42.142;24.720;2024-03-22T13:23:30;8.07;;;2.10;;
35685;SDS011;21808;42.142;24.720;2024-03-22T13:25:57;8.32;;;2.30;;
35685;SDS011;21808;42.142;24.720;2024-03-22T13:28:30;9.38;;;2.28;;
35685;SDS011;21808;42.142;24.720;2024-03-22T13:31:01;6.70;;;2.35;;
35685;SDS011;21808;42.142;24.720;2024-03-22T13:33:28;7.57;;;2.03;;
35685;SDS011;21808;42.142;24.720;2024-03-22T13:36:00;5.72;;;2.03;;
35685;SDS011;21808;42.142;24.720;2024-03-22T13:38:26;8.48;;;2.47;;
35685;SDS011;21808;42.142;24.720;2024-03-22T13:40:54;8.52;;;2.45;;
35685;SDS011;21808;42.142;24.720;2024-03-22T13:43:23;7.93;;;2.30;;
35685;SDS011;21808;42.142;24.720;2024-03-22T13:45:52;8.32;;;2.00;;
35685;SDS011;21808;42.142;24.720;2024-03-22T13:48:25;7.95;;;2.38;;
35685;SDS011;21808;42.142;24.720;2024-03-22T13:50:59;5.93;;;2.10;;
35685;SDS011;21808;42.142;24.720;2024-03-22T13:53:28;8.23;;;2.35;;
35685;SDS011;21808;42.142;24.720;2024-03-22T13:55:54;6.38;;;2.22;;
35685;SDS011;21808;42.142;24.720;2024-03-22T13:58:20;8.50;;;2.40;;
35685;SDS011;21808;42.142;24.720;2024-03-22T14:00:46;7.70;;;2.20;;
35685;SDS011;21808;42.142;24.720;2024-03-22T14:03:15;5.65;;;2.10;;
35685;SDS011;21808;42.142;24.720;2024-03-22T14:05:43;7.20;;;2.33;;
35685;SDS011;21808;42.142;24.720;2024-03-22T14:08:09;5.90;;;2.20;;
35685;SDS011;21808;42.142;24.720;2024-03-22T14:10:37;9.35;;;2.10;;
35685;SDS011;21808;42.142;24.720;2024-03-22T14:13:03;6.70;;;2.20;;
35685;SDS011;21808;42.142;24.720;2024-03-22T14:15:33;8.18;;;2.17;;
35685;SDS011;21808;42.142;24.720;2024-03-22T14:18:00;6.75;;;2.20;;
35685;SDS011;21808;42.142;24.720;2024-03-22T14:20:29;6.32;;;2.25;;